Time;durP1;ratioP1;P1;durP2;ratioP2;P2;SDS_P1;SDS_P2;PMS_P1;PMS_P2;Temp;Humidity;BMP_temperature;BMP_pressure;BME280_temperature;BME280_humidity;BME280_pressure;Samples;Min_cycle;Max_cycle;Signal;HPM_P1;HPM_P2
2023/01/02 00:00:51;;;;;;;5.80;2.17;;;;;;;;;;5046157;28;20204;-91
2023/01/02 00:03:32;;;;;;;0.63;0.63;;;;;;;;;;5051493;28;20179;-91
2023/01/02 00:06:02;;;;;;;0.50;0.50;;;;;;;;;;5053083;28;20188;-91
2023/01/02 00:08:32;;;;;;;1.00;0.70;;;;;;;;;;5055703;28;20258;-91
2023/01/02 00:13:42;;;;;;;0.37;0.37;;;;;;;;;;5031957;28;20259;-91
2023/01/02 00:16:16;;;;;;;1.70;1.17;;;;;;;;;;5041351;28;20232;-91
2023/01/02 00:18:51;;;;;;;0.50;0.50;;;;;;;;;;5040864;28;20192;-91
2023/01/02 00:21:26;;;;;;;2.53;0.93;;;;;;;;;;5041048;28;20196;-91
2023/01/02 00:23:55;;;;;;;1.50;1.40;;;;;;;;;;5043957;28;20195;-91
2023/01/02 00:26:25;;;;;;;0.33;0.33;;;;;;;;;;5043639;28;20199;-90
2023/01/02 00:28:56;;;;;;;3.10;0.83;;;;;;;;;;5045941;28;20227;-91
2023/01/02 00:31:26;;;;;;;0.40;0.40;;;;;;;;;;5045573;28;20202;-91
2023/01/02 00:34:03;;;;;;;0.40;0.40;;;;;;;;;;5044881;28;20203;-92
2023/01/02 00:36:32;;;;;;;0.87;0.87;;;;;;;;;;5050965;28;20180;-93
2023/01/02 00:39:13;;;;;;;1.53;1.43;;;;;;;;;;5054613;28;20220;-93
2023/01/02 00:41:46;;;;;;;0.10;0.10;;;;;;;;;;5040714;28;20712;-91
2023/01/02 00:44:17;;;;;;;2.20;1.47;;;;;;;;;;5040085;28;20656;-91
2023/01/02 00:46:51;;;;;;;1.23;0.60;;;;;;;;;;5039056;28;20196;-90
2023/01/02 00:49:23;;;;;;;0.53;0.53;;;;;;;;;;5041611;28;20188;-91
2023/01/02 00:51:51;;;;;;;1.00;1.00;;;;;;;;;;5055373;28;20198;-90
2023/01/02 00:54:24;;;;;;;0.00;0.00;;;;;;;;;;5048181;28;20204;-91
2023/01/02 00:56:52;;;;;;;0.30;0.30;;;;;;;;;;5040095;28;20220;-89
2023/01/02 00:59:18;;;;;;;2.43;0.87;;;;;;;;;;5038782;28;20208;-91
2023/01/02 01:01:47;;;;;;;0.70;0.70;;;;;;;;;;5038141;28;20676;-93
2023/01/02 01:04:15;;;;;;;1.47;1.37;;;;;;;;;;5036993;28;20291;-91
2023/01/02 01:06:50;;;;;;;0.60;0.60;;;;;;;;;;5037384;28;20200;-91
2023/01/02 01:09:18;;;;;;;0.47;0.47;;;;;;;;;;5037480;28;20254;-92
2023/01/02 01:11:46;;;;;;;1.80;1.10;;;;;;;;;;5037457;28;20203;-90
2023/01/02 01:14:14;;;;;;;1.27;0.87;;;;;;;;;;5037663;28;20210;-92
2023/01/02 01:16:42;;;;;;;0.53;0.53;;;;;;;;;;5036956;28;20192;-91
2023/01/02 01:19:11;;;;;;;1.17;1.07;;;;;;;;;;5037328;28;20204;-90
2023/01/02 01:21:39;;;;;;;5.63;1.10;;;;;;;;;;5037530;28;20585;-91
2023/01/02 01:24:11;;;;;;;0.87;0.87;;;;;;;;;;5036567;28;20264;-90
2023/01/02 01:26:38;;;;;;;5.30;1.43;;;;;;;;;;5036945;28;20192;-91
2023/01/02 01:29:10;;;;;;;0.60;0.37;;;;;;;;;;5037549;28;20196;-91
2023/01/02 01:31:38;;;;;;;0.73;0.73;;;;;;;;;;5037144;28;20200;-91
2023/01/02 01:34:06;;;;;;;0.93;0.93;;;;;;;;;;5028798;28;20307;-91
2023/01/02 01:36:33;;;;;;;2.00;1.70;;;;;;;;;;5036725;28;20227;-90
2023/01/02 01:39:01;;;;;;;0.37;0.37;;;;;;;;;;5037163;28;20228;-92
2023/01/02 01:41:31;;;;;;;1.50;1.00;;;;;;;;;;5036860;28;20196;-91
2023/01/02 01:44:00;;;;;;;0.80;0.80;;;;;;;;;;5037532;28;20273;-92
2023/01/02 01:46:34;;;;;;;2.13;1.20;;;;;;;;;;5037106;28;20670;-92
2023/01/02 01:49:04;;;;;;;0.90;0.90;;;;;;;;;;5037018;28;20527;-91
2023/01/02 01:51:37;;;;;;;0.40;0.40;;;;;;;;;;5036638;28;20200;-91
2023/01/02 01:54:09;;;;;;;2.73;1.30;;;;;;;;;;5037119;28;20202;-91
2023/01/02 01:56:43;;;;;;;0.93;0.93;;;;;;;;;;5036843;28;20235;-91
2023/01/02 01:59:14;;;;;;;2.37;2.13;;;;;;;;;;5036804;28;20283;-92
2023/01/02 02:01:42;;;;;;;3.03;2.83;;;;;;;;;;5039085;28;20210;-91
2023/01/02 02:04:11;;;;;;;1.33;1.33;;;;;;;;;;5049242;28;20208;-92
2023/01/02 02:06:39;;;;;;;2.30;1.17;;;;;;;;;;5049578;28;20208;-92
2023/01/02 02:09:10;;;;;;;0.77;0.77;;;;;;;;;;5051212;28;20232;-88
2023/01/02 02:11:43;;;;;;;1.50;1.33;;;;;;;;;;5056211;28;20255;-91
2023/01/02 02:14:22;;;;;;;0.90;0.90;;;;;;;;;;5050052;28;20203;-91
2023/01/02 02:16:52;;;;;;;2.50;2.03;;;;;;;;;;5042375;28;20265;-91
2023/01/02 02:19:34;;;;;;;1.47;1.37;;;;;;;;;;5041813;28;20223;-89
2023/01/02 02:22:09;;;;;;;2.00;1.90;;;;;;;;;;5034201;28;20199;-92
2023/01/02 02:24:54;;;;;;;1.67;1.57;;;;;;;;;;5037005;28;20213;-92
2023/01/02 02:27:36;;;;;;;1.77;0.97;;;;;;;;;;5028585;28;20207;-92
2023/01/02 02:30:12;;;;;;;1.00;0.90;;;;;;;;;;5037843;28;20189;-90
2023/01/02 02:32:49;;;;;;;2.27;1.03;;;;;;;;;;5037384;28;20192;-90
2023/01/02 02:35:20;;;;;;;4.53;1.00;;;;;;;;;;5037725;28;20234;-93
2023/01/02 02:37:52;;;;;;;3.13;1.37;;;;;;;;;;5036831;28;20204;-90
2023/01/02 02:40:26;;;;;;;1.27;1.23;;;;;;;;;;5037859;28;20602;-92
2023/01/02 02:43:00;;;;;;;5.53;1.40;;;;;;;;;;5037780;28;20286;-91
2023/01/02 02:45:35;;;;;;;3.70;1.73;;;;;;;;;;5036702;28;20595;-93
2023/01/02 02:48:11;;;;;;;1.70;0.57;;;;;;;;;;5036419;28;20195;-92
2023/01/02 02:50:42;;;;;;;1.33;1.33;;;;;;;;;;5035513;28;20700;-91
2023/01/02 02:53:12;;;;;;;1.40;1.03;;;;;;;;;;5036119;28;20218;-91
2023/01/02 02:55:43;;;;;;;1.00;0.97;;;;;;;;;;5035567;28;20254;-91
2023/01/02 02:58:12;;;;;;;4.80;2.70;;;;;;;;;;5035946;28;20600;-91
2023/01/02 03:00:42;;;;;;;0.33;0.30;;;;;;;;;;5036318;28;20279;-91
2023/01/02 03:03:18;;;;;;;0.20;0.20;;;;;;;;;;5036769;28;20242;-90
2023/01/02 03:05:54;;;;;;;1.70;1.13;;;;;;;;;;5041947;28;20178;-91
2023/01/02 03:08:26;;;;;;;0.90;0.90;;;;;;;;;;5051476;28;20236;-92
2023/01/02 03:10:57;;;;;;;2.50;1.10;;;;;;;;;;5051665;28;20322;-92
2023/01/02 03:13:31;;;;;;;1.77;0.67;;;;;;;;;;5056155;28;20185;-92
2023/01/02 03:16:01;;;;;;;0.57;0.30;;;;;;;;;;5041592;28;20305;-92
2023/01/02 03:18:37;;;;;;;0.60;0.60;;;;;;;;;;5037253;28;20200;-90
2023/01/02 03:21:07;;;;;;;0.70;0.70;;;;;;;;;;5038999;28;20199;-94
2023/01/02 03:23:37;;;;;;;0.33;0.33;;;;;;;;;;5045419;28;20180;-90
2023/01/02 03:26:07;;;;;;;0.83;0.83;;;;;;;;;;5055092;28;20196;-92
2023/01/02 03:28:35;;;;;;;0.20;0.20;;;;;;;;;;5036165;28;20227;-92
2023/01/02 03:31:06;;;;;;;0.50;0.50;;;;;;;;;;5035569;28;20202;-91
2023/01/02 03:33:36;;;;;;;1.73;1.63;;;;;;;;;;5036017;28;20191;-92
2023/01/02 03:36:06;;;;;;;0.73;0.73;;;;;;;;;;5035383;28;20307;-92
2023/01/02 03:41:27;;;;;;;2.17;1.37;;;;;;;;;;5048543;28;20204;-91
2023/01/02 03:44:00;;;;;;;6.23;0.93;;;;;;;;;;5037580;28;20223;-91
2023/01/02 03:46:33;;;;;;;1.13;1.00;;;;;;;;;;5037270;28;20265;-91
2023/01/02 03:49:02;;;;;;;1.10;1.10;;;;;;;;;;5036377;28;20196;-91
2023/01/02 03:51:30;;;;;;;0.47;0.47;;;;;;;;;;5036569;28;20639;-91
2023/01/02 03:54:09;;;;;;;;;;;;;;;;;;;;;
2023/01/02 03:56:45;;;;;;;0.53;0.53;;;;;;;;;;5035477;28;20223;-91
2023/01/02 03:59:20;;;;;;;2.27;1.07;;;;;;;;;;5039779;28;20661;-91
2023/01/02 04:01:52;;;;;;;0.33;0.33;;;;;;;;;;5039906;28;20214;-91
2023/01/02 04:04:25;;;;;;;0.27;0.27;;;;;;;;;;5039534;28;20199;-89
2023/01/02 04:06:58;;;;;;;0.13;0.13;;;;;;;;;;5040249;28;20199;-91
2023/01/02 04:09:27;;;;;;;0.87;0.87;;;;;;;;;;5039744;28;20238;-93
2023/01/02 04:11:57;;;;;;;2.23;1.07;;;;;;;;;;5040210;28;20577;-91
2023/01/02 04:14:28;;;;;;;2.53;1.23;;;;;;;;;;5042446;28;20192;-92
2023/01/02 04:16:58;;;;;;;1.40;0.90;;;;;;;;;;5042105;28;20232;-90
2023/01/02 04:19:33;;;;;;;2.03;0.90;;;;;;;;;;5044180;28;20192;-92
2023/01/02 04:22:05;;;;;;;0.00;0.00;;;;;;;;;;5047462;28;20251;-91
2023/01/02 04:24:46;;;;;;;;;;;;;;;;;;;;;
2023/01/02 04:27:15;;;;;;;0.90;0.90;;;;;;;;;;5058423;28;20176;-90
2023/01/02 04:29:43;;;;;;;0.97;0.60;;;;;;;;;;5055722;28;20196;-91
2023/01/02 04:32:17;;;;;;;3.90;0.70;;;;;;;;;;5039625;28;20208;-92
2023/01/02 04:34:49;;;;;;;3.20;1.23;;;;;;;;;;5039832;28;20231;-92
2023/01/02 04:37:38;;;;;;;1.53;0.87;;;;;;;;;;5038243;28;20236;-91
2023/01/02 04:40:07;;;;;;;4.83;0.87;;;;;;;;;;5030634;28;20692;-92
2023/01/02 04:42:35;;;;;;;2.03;1.00;;;;;;;;;;5038726;28;20230;-91
2023/01/02 04:45:08;;;;;;;1.13;1.00;;;;;;;;;;5039653;28;20223;-91
2023/01/02 04:47:37;;;;;;;1.10;1.10;;;;;;;;;;5039140;28;20207;-90
2023/01/02 04:50:06;;;;;;;0.47;0.47;;;;;;;;;;5038137;28;20204;-92
2023/01/02 04:52:33;;;;;;;2.37;2.00;;;;;;;;;;5038290;28;20207;-92
2023/01/02 04:55:02;;;;;;;0.83;0.83;;;;;;;;;;5038832;28;20196;-91
2023/01/02 04:57:30;;;;;;;2.00;1.40;;;;;;;;;;5038515;28;20235;-90
2023/01/02 04:59:58;;;;;;;1.10;1.10;;;;;;;;;;5038513;28;20200;-93
2023/01/02 05:02:26;;;;;;;3.97;2.13;;;;;;;;;;5038734;28;20192;-91
2023/01/02 05:05:02;;;;;;;1.43;1.40;;;;;;;;;;5042837;28;20207;-91
2023/01/02 05:07:39;;;;;;;0.50;0.50;;;;;;;;;;5032102;28;20200;-92
2023/01/02 05:10:12;;;;;;;1.77;1.67;;;;;;;;;;5037478;28;20258;-91
2023/01/02 05:12:47;;;;;;;3.87;1.93;;;;;;;;;;5037787;28;20192;-91
2023/01/02 05:15:18;;;;;;;1.37;1.37;;;;;;;;;;5040607;28;20259;-91
2023/01/02 05:17:54;;;;;;;4.20;2.00;;;;;;;;;;5039174;28;20262;-91
2023/01/02 05:20:25;;;;;;;0.70;0.70;;;;;;;;;;5038584;28;20563;-91
2023/01/02 05:25:50;;;;;;;0.53;0.53;;;;;;;;;;5039042;28;20619;-92
2023/01/02 05:28:18;;;;;;;1.50;1.40;;;;;;;;;;5037737;28;20200;-92
2023/01/02 05:30:48;;;;;;;1.17;1.17;;;;;;;;;;5040528;28;20196;-90
2023/01/02 05:33:16;;;;;;;3.40;1.47;;;;;;;;;;5038545;28;20195;-91
2023/01/02 05:35:55;;;;;;;1.10;0.97;;;;;;;;;;5038529;28;20208;-90
2023/01/02 05:38:27;;;;;;;5.63;1.07;;;;;;;;;;5038208;28;20200;-90
2023/01/02 05:41:04;;;;;;;0.80;0.80;;;;;;;;;;5038584;28;20290;-90
2023/01/02 05:43:37;;;;;;;0.50;0.50;;;;;;;;;;5038207;28;20668;-91
2023/01/02 05:46:10;;;;;;;2.13;1.03;;;;;;;;;;5037720;28;20204;-91
2023/01/02 05:48:38;;;;;;;3.60;1.00;;;;;;;;;;5037849;28;20626;-92
2023/01/02 05:51:13;;;;;;;1.53;0.67;;;;;;;;;;5039265;28;20204;-92
2023/01/02 05:53:41;;;;;;;0.23;0.23;;;;;;;;;;5043534;28;20212;-91
2023/01/02 05:56:10;;;;;;;1.13;1.10;;;;;;;;;;5052690;28;20228;-92
2023/01/02 05:58:39;;;;;;;1.60;1.57;;;;;;;;;;5041487;28;20207;-90
2023/01/02 06:01:11;;;;;;;2.07;1.10;;;;;;;;;;5038096;28;20227;-91
2023/01/02 06:03:55;;;;;;;0.43;0.43;;;;;;;;;;5037960;28;20206;-93
2023/01/02 06:06:31;;;;;;;1.90;1.27;;;;;;;;;;5039640;28;20291;-92
2023/01/02 06:09:01;;;;;;;3.23;1.30;;;;;;;;;;5051842;28;20241;-91
2023/01/02 06:11:34;;;;;;;1.17;1.17;;;;;;;;;;5066612;28;20208;-90
2023/01/02 06:14:04;;;;;;;0.77;0.77;;;;;;;;;;5072651;28;20179;-90
2023/01/02 06:16:31;;;;;;;0.47;0.47;;;;;;;;;;5076224;28;20238;-88
2023/01/02 06:19:01;;;;;;;0.20;0.20;;;;;;;;;;5066949;28;20249;-91
2023/01/02 06:21:32;;;;;;;1.03;0.67;;;;;;;;;;5058383;28;20215;-90
2023/01/02 06:24:00;;;;;;;3.47;1.73;;;;;;;;;;5060292;28;20524;-90
2023/01/02 06:26:31;;;;;;;1.53;1.13;;;;;;;;;;5073564;28;20289;-89
2023/01/02 06:29:02;;;;;;;3.03;1.37;;;;;;;;;;5070776;28;20191;-90
2023/01/02 06:31:32;;;;;;;1.17;0.80;;;;;;;;;;5056707;28;20276;-91
2023/01/02 06:34:00;;;;;;;1.67;0.87;;;;;;;;;;5058218;28;20199;-89
2023/01/02 06:36:31;;;;;;;3.97;1.60;;;;;;;;;;5056467;28;20249;-90
2023/01/02 06:39:02;;;;;;;5.40;3.70;;;;;;;;;;5059456;28;20206;-90
2023/01/02 06:41:33;;;;;;;5.40;4.00;;;;;;;;;;5072131;28;20291;-90
2023/01/02 06:44:02;;;;;;;0.83;0.67;;;;;;;;;;5061428;28;20208;-90
2023/01/02 06:46:30;;;;;;;0.93;0.93;;;;;;;;;;5056710;28;20205;-91
2023/01/02 06:49:05;;;;;;;1.13;1.13;;;;;;;;;;5055713;28;20249;-89
2023/01/02 06:51:38;;;;;;;2.10;1.63;;;;;;;;;;5056923;28;20191;-90
2023/01/02 06:54:21;;;;;;;2.00;1.90;;;;;;;;;;5056618;28;20201;-88
2023/01/02 06:56:48;;;;;;;1.07;1.07;;;;;;;;;;5055039;28;20318;-89
2023/01/02 06:59:19;;;;;;;1.93;1.63;;;;;;;;;;5055046;28;20218;-90
2023/01/02 07:01:56;;;;;;;1.60;1.50;;;;;;;;;;5055531;28;20211;-90
2023/01/02 07:04:27;;;;;;;0.43;0.43;;;;;;;;;;5058335;28;20653;-91
2023/01/02 07:07:00;;;;;;;3.30;1.97;;;;;;;;;;5055009;28;20290;-90
2023/01/02 07:09:28;;;;;;;0.33;0.33;;;;;;;;;;5052589;28;20235;-90
2023/01/02 07:11:57;;;;;;;0.90;0.90;;;;;;;;;;5055658;28;20199;-90
2023/01/02 07:14:26;;;;;;;0.73;0.73;;;;;;;;;;5055629;28;20240;-91
2023/01/02 07:16:54;;;;;;;2.23;2.10;;;;;;;;;;5055491;28;20228;-92
2023/01/02 07:19:22;;;;;;;3.57;1.93;;;;;;;;;;5054841;28;20207;-92
2023/01/02 07:21:50;;;;;;;1.77;1.67;;;;;;;;;;5055091;28;20260;-91
2023/01/02 07:24:19;;;;;;;1.50;1.47;;;;;;;;;;5055655;28;20203;-92
2023/01/02 07:26:54;;;;;;;2.73;2.53;;;;;;;;;;5055181;28;20283;-89
2023/01/02 07:29:21;;;;;;;2.93;2.80;;;;;;;;;;5055460;28;20232;-90
2023/01/02 07:31:53;;;;;;;2.87;2.67;;;;;;;;;;5055138;28;20201;-91
2023/01/02 07:34:22;;;;;;;4.37;3.17;;;;;;;;;;5054965;28;20664;-91
2023/01/02 07:36:51;;;;;;;2.30;2.20;;;;;;;;;;5055469;28;20260;-93
2023/01/02 07:39:24;;;;;;;10.40;2.13;;;;;;;;;;5054444;28;20203;-91
2023/01/02 07:41:54;;;;;;;6.17;2.03;;;;;;;;;;5054768;28;20199;-92
2023/01/02 07:44:23;;;;;;;3.47;3.03;;;;;;;;;;5055949;28;20202;-89
2023/01/02 07:47:05;;;;;;;3.53;3.20;;;;;;;;;;5059543;28;20687;-88
2023/01/02 07:49:34;;;;;;;2.50;2.33;;;;;;;;;;5065178;28;20198;-87
2023/01/02 07:52:10;;;;;;;4.10;3.50;;;;;;;;;;5062730;28;20293;-90
2023/01/02 07:55:00;;;;;;;3.40;2.23;;;;;;;;;;5063411;28;20208;-89
2023/01/02 07:57:40;;;;;;;3.53;3.30;;;;;;;;;;5058182;28;20250;-90
2023/01/02 08:00:10;;;;;;;3.10;2.27;;;;;;;;;;5061579;28;20202;-89
2023/01/02 08:02:42;;;;;;;2.40;2.20;;;;;;;;;;5062542;28;20200;-90
2023/01/02 08:05:16;;;;;;;1.73;1.73;;;;;;;;;;5064795;28;20209;-88
2023/01/02 08:10:37;;;;;;;7.63;2.27;;;;;;;;;;5060641;22;20242;-91
2023/01/02 08:13:10;;;;;;;2.93;2.73;;;;;;;;;;5061292;28;20240;-90
2023/01/02 08:15:41;;;;;;;5.63;3.17;;;;;;;;;;5065935;28;20224;-89
2023/01/02 08:18:09;;;;;;;4.47;2.27;;;;;;;;;;5063161;28;20230;-89
2023/01/02 08:20:37;;;;;;;2.17;2.07;;;;;;;;;;5059138;28;20204;-90
2023/01/02 08:23:15;;;;;;;3.93;2.77;;;;;;;;;;5061554;28;20207;-90
2023/01/02 08:25:49;;;;;;;5.80;2.33;;;;;;;;;;5044904;28;20205;-90
2023/01/02 08:28:16;;;;;;;3.37;2.17;;;;;;;;;;5042697;28;20266;-89
2023/01/02 08:30:47;;;;;;;2.73;2.07;;;;;;;;;;5044884;28;20225;-91
2023/01/02 08:33:14;;;;;;;13.47;4.40;;;;;;;;;;5049233;28;20239;-91
2023/01/02 08:35:44;;;;;;;5.13;3.87;;;;;;;;;;5054538;28;20209;-89
2023/01/02 08:38:17;;;;;;;2.80;1.97;;;;;;;;;;5038576;28;20241;-91
2023/01/02 08:40:50;;;;;;;3.07;2.33;;;;;;;;;;5044520;28;20213;-89
2023/01/02 08:43:23;;;;;;;5.40;2.30;;;;;;;;;;5045358;28;20214;-88
2023/01/02 08:45:53;;;;;;;12.30;3.77;;;;;;;;;;5047398;28;20227;-89
2023/01/02 08:48:26;;;;;;;2.07;1.97;;;;;;;;;;5048799;28;20189;-88
2023/01/02 08:51:05;;;;;;;6.77;3.47;;;;;;;;;;5059589;28;20195;-90
2023/01/02 08:53:34;;;;;;;4.93;3.90;;;;;;;;;;5060672;28;20213;-90
2023/01/02 08:56:18;;;;;;;2.27;2.27;;;;;;;;;;5067227;28;20664;-90
2023/01/02 08:59:01;;;;;;;5.87;2.47;;;;;;;;;;5064420;28;20238;-91
2023/01/02 09:01:30;;;;;;;1.80;1.50;;;;;;;;;;5065999;28;20201;-90
2023/01/02 09:03:59;;;;;;;1.60;1.57;;;;;;;;;;5064523;28;20252;-89
2023/01/02 09:06:27;;;;;;;4.03;3.60;;;;;;;;;;5067870;28;20205;-89
2023/01/02 09:08:57;;;;;;;3.00;2.80;;;;;;;;;;5056152;28;20339;-91
2023/01/02 09:11:26;;;;;;;2.43;2.33;;;;;;;;;;5040875;28;20201;-89
2023/01/02 09:14:08;;;;;;;4.93;3.70;;;;;;;;;;5029330;28;20683;-88
2023/01/02 09:16:38;;;;;;;2.13;2.03;;;;;;;;;;5021679;28;20231;-88
2023/01/02 09:19:07;;;;;;;3.10;2.80;;;;;;;;;;5024804;28;20643;-88
2023/01/02 09:21:50;;;;;;;6.87;3.33;;;;;;;;;;5029980;28;20370;-89
2023/01/02 09:24:19;;;;;;;2.60;2.40;;;;;;;;;;5032426;28;20210;-91
2023/01/02 09:27:03;;;;;;;3.50;3.20;;;;;;;;;;5037930;28;20192;-91
2023/01/02 09:29:33;;;;;;;5.03;3.37;;;;;;;;;;5036899;28;20205;-90
2023/01/02 09:32:01;;;;;;;5.47;3.40;;;;;;;;;;5038940;28;20183;-88
2023/01/02 09:34:30;;;;;;;6.87;3.57;;;;;;;;;;5035271;28;20204;-91
2023/01/02 09:36:59;;;;;;;4.23;3.40;;;;;;;;;;5032331;28;20200;-90
2023/01/02 09:39:26;;;;;;;7.07;4.17;;;;;;;;;;5036310;28;20230;-90
2023/01/02 09:41:56;;;;;;;4.10;3.80;;;;;;;;;;5035204;28;20197;-91
2023/01/02 09:44:26;;;;;;;3.60;2.77;;;;;;;;;;5037895;28;20213;-89
2023/01/02 09:50:02;;;;;;;4.37;3.87;;;;;;;;;;5023294;28;20206;-89
2023/01/02 09:55:19;;;;;;;6.40;4.10;;;;;;;;;;5017329;28;20208;-91
2023/01/02 09:57:51;;;;;;;5.80;1.87;;;;;;;;;;5017057;28;20227;-91
2023/01/02 10:00:21;;;;;;;3.77;2.50;;;;;;;;;;5017972;28;20200;-92
2023/01/02 10:03:10;;;;;;;2.23;2.07;;;;;;;;;;5017932;28;20200;-93
2023/01/02 10:05:59;;;;;;;3.00;2.80;;;;;;;;;;5012498;28;20212;-89
2023/01/02 10:08:30;;;;;;;3.63;2.50;;;;;;;;;;5017613;28;20203;-92
2023/01/02 10:11:11;;;;;;;3.23;2.33;;;;;;;;;;5018805;28;20201;-91
2023/01/02 10:13:43;;;;;;;5.50;5.07;;;;;;;;;;5017916;28;20196;-92
2023/01/02 10:16:16;;;;;;;6.27;2.63;;;;;;;;;;5018523;28;20704;-90
2023/01/02 10:18:55;;;;;;;4.17;3.63;;;;;;;;;;5017318;28;20235;-92
2023/01/02 10:21:31;;;;;;;3.77;3.47;;;;;;;;;;5011361;28;20280;-91
2023/01/02 10:24:15;;;;;;;4.10;1.90;;;;;;;;;;5019270;28;20205;-91
2023/01/02 10:29:56;;;;;;;3.77;3.47;;;;;;;;;;5016753;28;20208;-89
2023/01/02 10:32:29;;;;;;;2.50;2.17;;;;;;;;;;5019365;28;20278;-92
2023/01/02 10:35:08;;;;;;;2.55;2.45;;;;;;;;;;5020141;28;20200;-91
2023/01/02 10:37:42;;;;;;;7.97;3.05;;;;;;;;;;5023536;28;20225;-90
2023/01/02 10:40:13;;;;;;;2.08;1.48;;;;;;;;;;5025116;28;20723;-92
2023/01/02 10:42:41;;;;;;;4.95;3.45;;;;;;;;;;5034417;28;20200;-91
2023/01/02 10:45:14;;;;;;;5.70;4.15;;;;;;;;;;5034104;28;20229;-89
2023/01/02 10:47:43;;;;;;;7.10;3.38;;;;;;;;;;5021079;28;20201;-90
2023/01/02 10:50:19;;;;;;;6.45;4.45;;;;;;;;;;5018890;28;20200;-92
2023/01/02 10:52:51;;;;;;;7.10;3.97;;;;;;;;;;5018713;28;20674;-91
2023/01/02 10:55:40;;;;;;;4.78;3.35;;;;;;;;;;5020551;28;20203;-90
2023/01/02 10:58:28;;;;;;;5.03;4.32;;;;;;;;;;5024047;28;20234;-92
2023/01/02 11:01:09;;;;;;;3.60;3.05;;;;;;;;;;5024472;28;20202;-90
2023/01/02 11:03:50;;;;;;;;;;;;;;;;;;;;;
2023/01/02 11:06:30;;;;;;;2.55;2.35;;;;;;;;;;5024488;28;20207;-89
2023/01/02 11:09:02;;;;;;;3.58;3.22;;;;;;;;;;5039269;28;20230;-91
2023/01/02 11:11:30;;;;;;;3.15;2.95;;;;;;;;;;5036822;28;20203;-89
2023/01/02 11:14:16;;;;;;;5.43;2.92;;;;;;;;;;5040821;28;20201;-89
2023/01/02 11:16:44;;;;;;;7.60;2.83;;;;;;;;;;5040074;28;20200;-89
2023/01/02 11:19:18;;;;;;;7.50;3.78;;;;;;;;;;5039803;28;20228;-92
2023/01/02 11:21:49;;;;;;;5.82;3.22;;;;;;;;;;5035711;28;20193;-91
2023/01/02 11:24:18;;;;;;;3.00;2.80;;;;;;;;;;5036267;28;20211;-91
2023/01/02 11:26:47;;;;;;;4.13;2.75;;;;;;;;;;5036026;28;20228;-92
2023/01/02 11:29:19;;;;;;;3.33;2.88;;;;;;;;;;5036712;28;20290;-92
2023/01/02 11:31:56;;;;;;;2.70;2.50;;;;;;;;;;5037565;28;20595;-92
2023/01/02 11:34:25;;;;;;;6.80;2.60;;;;;;;;;;5036374;28;20196;-91
2023/01/02 11:37:18;;;;;;;6.68;3.72;;;;;;;;;;5037154;28;20194;-90
2023/01/02 11:40:05;;;;;;;2.93;2.73;;;;;;;;;;5038105;28;20196;-90
2023/01/02 11:45:21;;;;;;;4.60;3.17;;;;;;;;;;5042220;28;20205;-92
2023/01/02 11:47:54;;;;;;;3.80;2.80;;;;;;;;;;5041945;28;20206;-91
2023/01/02 11:50:25;;;;;;;4.63;3.47;;;;;;;;;;5030659;28;20231;-91
2023/01/02 11:53:03;;;;;;;3.30;3.00;;;;;;;;;;5042519;28;20228;-93
2023/01/02 11:55:38;;;;;;;4.47;2.77;;;;;;;;;;5041677;28;20196;-91
2023/01/02 11:58:22;;;;;;;4.07;3.60;;;;;;;;;;5043396;28;20244;-91
2023/01/02 12:00:52;;;;;;;3.57;3.37;;;;;;;;;;5041681;28;20222;-92
2023/01/02 12:03:23;;;;;;;3.87;3.00;;;;;;;;;;5040784;28;20205;-92
2023/01/02 12:05:57;;;;;;;2.63;2.53;;;;;;;;;;5042660;28;20203;-90
2023/01/02 12:09:06;;;;;;;;;;;;;;;;;;;;;
2023/01/02 12:11:48;;;;;;;1.63;1.53;;;;;;;;;;5039126;28;20189;-90
2023/01/02 12:14:17;;;;;;;2.97;2.30;;;;;;;;;;5033921;28;20211;-90
2023/01/02 12:16:50;;;;;;;2.93;2.60;;;;;;;;;;5033499;28;20220;-91
2023/01/02 12:19:33;;;;;;;3.87;2.33;;;;;;;;;;5036159;28;20218;-90
2023/01/02 12:22:09;;;;;;;3.80;2.87;;;;;;;;;;5038147;28;20683;-91
2023/01/02 12:24:46;;;;;;;4.93;2.27;;;;;;;;;;5046679;28;20228;-90
2023/01/02 12:27:17;;;;;;;5.50;3.70;;;;;;;;;;5058967;28;20203;-90
2023/01/02 12:30:01;;;;;;;4.33;2.63;;;;;;;;;;5059586;28;20221;-92
2023/01/02 12:32:44;;;;;;;3.90;3.03;;;;;;;;;;5059562;28;20342;-89
2023/01/02 12:35:22;;;;;;;3.00;2.80;;;;;;;;;;5059628;28;20240;-91
2023/01/02 12:40:51;;;;;;;2.13;1.63;;;;;;;;;;5050263;28;20208;-91
2023/01/02 12:43:34;;;;;;;2.10;1.90;;;;;;;;;;5059523;28;20218;-90
2023/01/02 12:46:08;;;;;;;2.30;1.40;;;;;;;;;;5057739;28;20210;-90
2023/01/02 12:51:32;;;;;;;4.23;3.87;;;;;;;;;;5058399;28;20179;-90
2023/01/02 12:57:01;;;;;;;6.47;3.10;;;;;;;;;;5057670;28;20223;-90
2023/01/02 12:59:51;;;;;;;3.47;2.50;;;;;;;;;;5054792;28;20599;-89
2023/01/02 13:02:24;;;;;;;3.50;2.10;;;;;;;;;;5036049;28;20196;-90
2023/01/02 13:05:03;;;;;;;8.53;2.23;;;;;;;;;;5047570;28;20185;-90
2023/01/02 13:07:38;;;;;;;3.57;3.27;;;;;;;;;;5046224;28;20218;-92
2023/01/02 13:10:12;;;;;;;3.70;3.37;;;;;;;;;;5058292;28;20243;-90
2023/01/02 13:12:52;;;;;;;5.47;2.43;;;;;;;;;;5067949;28;20236;-90
2023/01/02 13:15:26;;;;;;;1.53;1.43;;;;;;;;;;5073278;28;20201;-91
2023/01/02 13:17:59;;;;;;;5.10;2.03;;;;;;;;;;5070866;28;20198;-91
2023/01/02 13:20:32;;;;;;;2.60;2.43;;;;;;;;;;5071254;28;20230;-89
2023/01/02 13:23:07;;;;;;;2.33;2.10;;;;;;;;;;5071858;28;20203;-89
2023/01/02 13:28:33;;;;;;;1.83;1.73;;;;;;;;;;5066058;28;20239;-90
2023/01/02 13:31:07;;;;;;;3.50;2.97;;;;;;;;;;5068414;28;20191;-89
2023/01/02 13:33:40;;;;;;;3.07;2.93;;;;;;;;;;5066547;28;20221;-91
2023/01/02 13:36:16;;;;;;;2.97;2.10;;;;;;;;;;5067092;28;20211;-90
2023/01/02 13:38:45;;;;;;;2.27;2.07;;;;;;;;;;5076632;28;20286;-89
2023/01/02 13:41:17;;;;;;;2.87;1.43;;;;;;;;;;5065174;28;20281;-92
2023/01/02 13:44:00;;;;;;;1.03;1.03;;;;;;;;;;5059398;28;20209;-92
2023/01/02 13:46:30;;;;;;;4.27;3.10;;;;;;;;;;5051351;28;20216;-91
2023/01/02 13:49:01;;;;;;;2.33;2.23;;;;;;;;;;5059275;28;20266;-92
2023/01/02 13:51:34;;;;;;;8.40;3.40;;;;;;;;;;5058718;28;20584;-90
2023/01/02 13:54:10;;;;;;;2.13;2.00;;;;;;;;;;5064798;28;20664;-92
2023/01/02 13:56:59;;;;;;;1.50;1.50;;;;;;;;;;5058655;28;20615;-92
2023/01/02 14:02:29;;;;;;;1.87;1.77;;;;;;;;;;5057709;28;20647;-92
2023/01/02 14:05:06;;;;;;;2.17;2.03;;;;;;;;;;5060848;28;20216;-91
2023/01/02 14:07:53;;;;;;;1.60;1.30;;;;;;;;;;5061642;28;20217;-92
2023/01/02 14:10:43;;;;;;;1.57;1.40;;;;;;;;;;5059300;28;20631;-91
2023/01/02 14:13:50;;;;;;;4.67;2.40;;;;;;;;;;5063003;28;20199;-91
2023/01/02 14:16:56;;;;;;;3.70;2.20;;;;;;;;;;5012984;28;20757;-92
2023/01/02 14:19:25;;;;;;;7.73;2.63;;;;;;;;;;5063075;28;20249;-91
2023/01/02 14:25:16;;;;;;;1.30;1.30;;;;;;;;;;5056489;28;20265;-91
2023/01/02 14:28:10;;;;;;;3.37;1.73;;;;;;;;;;5057507;28;20620;-91
2023/01/02 14:31:01;;;;;;;4.13;2.10;;;;;;;;;;5061857;28;20206;-91
2023/01/02 14:36:40;;;;;;;10.17;2.03;;;;;;;;;;5060959;28;20262;-91
2023/01/02 14:39:23;;;;;;;5.20;1.47;;;;;;;;;;5071298;28;20307;-90
2023/01/02 14:45:06;;;;;;;5.07;1.83;;;;;;;;;;5070185;28;20705;-92
2023/01/02 14:47:37;;;;;;;5.20;2.27;;;;;;;;;;5062537;28;20270;-91
2023/01/02 14:50:17;;;;;;;2.50;1.40;;;;;;;;;;5062966;28;20265;-91
2023/01/02 14:53:02;;;;;;;1.60;1.60;;;;;;;;;;5063005;28;20222;-92
2023/01/02 14:55:36;;;;;;;2.20;1.77;;;;;;;;;;5055755;28;20272;-91
2023/01/02 14:58:09;;;;;;;12.87;3.80;;;;;;;;;;5062980;28;20197;-91
2023/01/02 15:01:03;;;;;;;4.60;2.40;;;;;;;;;;5062420;28;20235;-92
2023/01/02 15:03:47;;;;;;;4.73;3.53;;;;;;;;;;5063642;28;20226;-89
2023/01/02 15:07:09;;;;;;;;;;;;;;;;;;;;;
2023/01/02 15:15:36;;;;;;;3.90;3.20;;;;;;;;;;5063146;28;20300;-91
2023/01/02 15:18:08;;;;;;;6.50;5.80;;;;;;;;;;5065740;28;20191;-92
2023/01/02 15:20:38;;;;;;;15.03;5.97;;;;;;;;;;5061956;28;20231;-90
2023/01/02 15:23:32;;;;;;;13.77;7.10;;;;;;;;;;5066732;28;20206;-91
2023/01/02 15:26:14;;;;;;;4.60;3.87;;;;;;;;;;5065532;28;20207;-93
2023/01/02 15:28:47;;;;;;;3.80;2.20;;;;;;;;;;5066105;28;20194;-92
2023/01/02 15:31:36;;;;;;;6.93;2.07;;;;;;;;;;5066288;28;20199;-91
2023/01/02 15:36:49;;;;;;;2.13;1.90;;;;;;;;;;5063615;28;20196;-93
2023/01/02 15:39:28;;;;;;;2.17;1.60;;;;;;;;;;5062716;28;20230;-91
2023/01/02 15:42:01;;;;;;;3.23;2.10;;;;;;;;;;5063202;28;20222;-92
2023/01/02 15:47:23;;;;;;;1.17;1.17;;;;;;;;;;5061037;28;20253;-91
2023/01/02 15:50:02;;;;;;;3.80;1.10;;;;;;;;;;5060517;28;20198;-93
2023/01/02 15:52:48;;;;;;;1.57;1.13;;;;;;;;;;5053475;28;20655;-91
2023/01/02 15:55:21;;;;;;;0.63;0.63;;;;;;;;;;5069243;28;20207;-92
2023/01/02 15:58:03;;;;;;;2.00;1.73;;;;;;;;;;5077762;28;20217;-92
2023/01/02 16:00:54;;;;;;;;;;;;;;;;;;;;;
2023/01/02 16:03:38;;;;;;;1.53;1.23;;;;;;;;;;5068914;28;20581;-92
2023/01/02 16:06:14;;;;;;;7.93;1.50;;;;;;;;;;5062521;28;20672;-91
2023/01/02 16:08:48;;;;;;;1.57;1.47;;;;;;;;;;5063565;28;20268;-92
2023/01/02 16:11:20;;;;;;;0.90;0.87;;;;;;;;;;5063727;28;20303;-93
2023/01/02 16:17:00;;;;;;;1.73;1.37;;;;;;;;;;5059923;28;20247;-90
2023/01/02 16:22:19;;;;;;;2.80;2.40;;;;;;;;;;5061521;28;20210;-91
2023/01/02 16:25:00;;;;;;;2.07;2.00;;;;;;;;;;5073615;28;20183;-92
2023/01/02 16:27:31;;;;;;;1.53;1.43;;;;;;;;;;5070032;28;20232;-93
2023/01/02 16:30:01;;;;;;;1.50;1.30;;;;;;;;;;5069604;28;20176;-91
2023/01/02 16:32:31;;;;;;;3.73;1.70;;;;;;;;;;5076833;28;20222;-88
2023/01/02 16:35:35;;;;;;;;;;;;;;;;;;;;;